Time;durP1;ratioP1;P1;durP2;ratioP2;P2;SDS_P1;SDS_P2;PMS_P1;PMS_P2;Temp;Humidity;BMP_temperature;BMP_pressure;BME280_temperature;BME280_humidity;BME280_pressure;Samples;Min_cycle;Max_cycle;Signal;HPM_P1;HPM_P2
2021/04/12 00:01:17;;;;;;;54.13;30.95;;;;;;;6.16;40.59;100551.58;1748977;79;21608;-64
2021/04/12 00:03:56;;;;;;;52.65;28.75;;;;;;;6.15;40.68;100553.78;1744559;79;21882;-63
2021/04/12 00:06:38;;;;;;;55.65;30.15;;;;;;;6.13;40.55;100556.41;1736297;80;21611;-64
2021/04/12 00:09:13;;;;;;;47.45;27.82;;;;;;;6.12;40.64;100558.61;1752984;79;21647;-63
2021/04/12 00:11:56;;;;;;;50.10;28.05;;;;;;;6.11;40.66;100559.48;1751061;80;21508;-64
2021/04/12 00:14:29;;;;;;;53.73;30.17;;;;;;;6.10;40.60;100560.79;1741859;80;21682;-62
2021/04/12 00:17:25;;;;;;;45.10;28.12;;;;;;;6.08;40.54;100560.80;1736004;80;21659;-62
2021/04/12 00:20:02;;;;;;;47.83;27.70;;;;;;;6.08;40.59;100559.49;1754309;79;21591;-64
2021/04/12 00:22:44;;;;;;;49.98;29.80;;;;;;;6.07;40.54;100562.14;1744995;80;21563;-63
2021/04/12 00:25:29;;;;;;;46.02;27.73;;;;;;;6.05;40.60;100558.23;1758287;79;21828;-64
2021/04/12 00:28:04;;;;;;;52.45;28.85;;;;;;;6.06;40.68;100549.51;1753442;79;21563;-64
2021/04/12 00:30:42;;;;;;;55.63;29.95;;;;;;;6.04;40.84;100546.91;1743316;79;21587;-63
2021/04/12 00:33:43;;;;;;;52.33;29.05;;;;;;;6.04;40.88;100541.69;1716659;80;21502;-63
2021/04/12 00:36:33;;;;;;;47.38;28.98;;;;;;;6.03;41.02;100545.64;1696974;82;21603;-64
2021/04/12 00:39:36;;;;;;;49.08;27.22;;;;;;;6.02;40.82;100546.51;1657739;83;21663;-63
2021/04/12 00:42:21;;;;;;;47.35;28.10;;;;;;;6.00;40.67;100546.97;1634279;86;21658;-64
2021/04/12 00:45:03;;;;;;;42.35;26.45;;;;;;;5.98;40.53;100543.51;1601013;88;22072;-65
2021/04/12 00:59:41;;;;;;;43.35;26.62;;;;;;;5.85;41.01;100539.66;1654565;84;21713;-63
2021/04/12 01:02:27;;;;;;;46.77;27.82;;;;;;;5.81;41.52;100536.66;1659278;84;21599;-63
2021/04/12 01:05:34;;;;;;;46.70;27.87;;;;;;;5.78;40.97;100540.62;1659530;85;21635;-64
2021/04/12 01:08:51;;;;;;;47.08;27.93;;;;;;;5.77;41.34;100534.10;1703012;82;21592;-63
2021/04/12 01:12:05;;;;;;;52.73;28.77;;;;;;;5.76;41.10;100534.52;1689227;82;21594;-64
2021/04/12 01:15:02;;;;;;;42.88;27.07;;;;;;;5.75;41.09;100529.34;1711208;82;21595;-63
2021/04/12 01:18:09;;;;;;;40.78;27.50;;;;;;;5.75;41.05;100524.98;1697809;82;21968;-62
2021/04/12 01:21:15;;;;;;;44.33;26.93;;;;;;;5.76;41.48;100521.92;1696241;82;21714;-63
2021/04/12 01:24:04;;;;;;;49.75;28.27;;;;;;;5.79;42.35;100528.42;1698039;82;22018;-64
2021/04/12 01:27:13;;;;;;;47.00;28.52;;;;;;;5.76;42.03;100518.86;1695877;82;21197;-64
2021/04/12 01:30:05;;;;;;;44.18;27.07;;;;;;;5.77;41.96;100515.39;1699994;82;21717;-63
2021/04/12 01:33:29;;;;;;;41.75;26.57;;;;;;;5.75;42.23;100509.32;1698635;82;21894;-64
2021/04/12 01:36:36;;;;;;;43.02;26.52;;;;;;;5.75;42.17;100505.85;1861782;75;22816;-65
2021/04/12 01:39:39;;;;;;;42.17;26.42;;;;;;;5.69;41.86;100504.16;1805438;77;21612;-64
2021/04/12 01:42:55;;;;;;;42.27;26.30;;;;;;;5.68;42.02;100505.48;1828792;77;21570;-65
2021/04/12 01:45:50;;;;;;;38.53;25.48;;;;;;;5.64;41.93;100500.73;1727712;80;21599;-67
2021/04/12 01:48:40;;;;;;;42.73;26.95;;;;;;;5.58;42.53;100495.57;1729508;81;21118;-64
2021/04/12 01:51:34;;;;;;;45.40;28.02;;;;;;;5.52;42.65;100493.88;1774333;78;21663;-64
2021/04/12 01:54:24;;;;;;;42.40;25.35;;;;;;;5.50;42.74;100487.81;1794406;78;21580;-65
2021/04/12 01:57:10;;;;;;;42.40;28.50;;;;;;;5.45;43.23;100478.70;1786936;78;22343;-65
2021/04/12 02:00:22;;;;;;;42.10;25.92;;;;;;;5.43;43.13;100479.61;1816728;77;26757;-67
2021/04/12 02:03:16;;;;;;;46.95;27.50;;;;;;;5.43;43.33;100477.86;1808216;77;21571;-65
2021/04/12 02:06:08;;;;;;;40.30;26.30;;;;;;;5.39;43.89;100478.77;1826755;77;21643;-65
2021/04/12 02:08:59;;;;;;;43.42;27.67;;;;;;;5.33;44.45;100481.43;1825237;77;21664;-65
2021/04/12 02:11:51;;;;;;;43.02;27.00;;;;;;;5.28;44.62;100471.47;1825473;77;22065;-64
2021/04/12 02:14:52;;;;;;;43.28;26.68;;;;;;;5.26;45.55;100470.61;1830761;77;21631;-65
2021/04/12 02:18:02;;;;;;;43.58;25.65;;;;;;;5.25;45.18;100467.56;1775706;78;21538;-65
2021/04/12 02:20:41;;;;;;;42.38;26.23;;;;;;;5.23;45.46;100466.27;1812025;77;21639;-64
2021/04/12 02:23:52;;;;;;;45.50;26.45;;;;;;;5.20;46.07;100469.37;1806186;78;21608;-64
2021/04/12 02:26:34;;;;;;;45.65;27.93;;;;;;;5.18;45.71;100468.48;1823768;77;22162;-63
2021/04/12 02:29:37;;;;;;;42.20;27.10;;;;;;;5.14;46.03;100462.45;1758672;77;21688;-63
2021/04/12 02:32:37;;;;;;;44.05;26.55;;;;;;;5.13;46.45;100469.84;1786326;78;21698;-63
2021/04/12 02:35:22;;;;;;;47.65;28.35;;;;;;;5.12;46.14;100460.72;1827893;77;21509;-62
2021/04/12 02:38:25;;;;;;;43.23;27.48;;;;;;;5.12;45.39;100458.11;1815963;78;21159;-61
2021/04/12 02:41:27;;;;;;;46.33;28.45;;;;;;;5.15;45.04;100456.80;1788375;77;21938;-63
2021/04/12 02:44:24;;;;;;;44.67;27.95;;;;;;;5.15;45.17;100463.31;1803556;78;21619;-63
2021/04/12 02:47:32;;;;;;;47.17;28.42;;;;;;;5.11;45.27;100456.40;1768226;77;21174;-63
2021/04/12 02:50:37;;;;;;;48.70;27.87;;;;;;;5.07;45.33;100456.41;1806527;78;21638;-63
2021/04/12 02:53:39;;;;;;;48.38;28.12;;;;;;;5.04;45.11;100451.20;1828671;77;21677;-62
2021/04/12 02:56:31;;;;;;;47.75;27.15;;;;;;;5.02;44.92;100446.45;1809696;78;22119;-68
2021/04/12 02:59:37;;;;;;;41.15;27.58;;;;;;;5.00;45.70;100440.83;1788966;77;21626;-63
2021/04/12 03:02:29;;;;;;;47.50;27.77;;;;;;;4.98;46.13;100442.58;1822792;77;21993;-62
2021/04/12 03:05:36;;;;;;;47.00;28.65;;;;;;;4.95;46.11;100438.69;1798165;77;21654;-62
2021/04/12 03:08:10;;;;;;;47.70;28.90;;;;;;;4.92;45.95;100434.38;1809748;78;21679;-64
2021/04/12 03:11:01;;;;;;;42.80;28.50;;;;;;;4.90;46.74;100427.00;1836993;77;22076;-63
2021/04/12 03:13:51;;;;;;;48.75;29.55;;;;;;;4.89;47.12;100423.95;1824985;77;21651;-63
2021/04/12 03:16:45;;;;;;;43.52;28.67;;;;;;;4.87;47.33;100421.36;1805047;78;21693;-64
2021/04/12 03:19:41;;;;;;;48.73;29.20;;;;;;;4.87;47.82;100423.96;1723966;81;21571;-62
2021/04/12 03:22:27;;;;;;;44.85;29.02;;;;;;;4.84;47.55;100424.42;1802388;78;21630;-64
2021/04/12 03:25:20;;;;;;;42.55;27.05;;;;;;;4.83;47.22;100422.70;1807983;78;22080;-63
2021/04/12 03:28:19;;;;;;;43.65;28.00;;;;;;;4.83;47.13;100424.00;1814805;78;21544;-62
2021/04/12 03:31:28;;;;;;;42.08;27.22;;;;;;;4.80;47.30;100424.91;1809021;77;21642;-63
2021/04/12 03:34:22;;;;;;;42.27;27.55;;;;;;;4.78;47.78;100417.95;1790209;78;21541;-60
2021/04/12 03:37:04;;;;;;;43.68;27.00;;;;;;;4.79;47.73;100417.09;1789020;78;21567;-60
2021/04/12 03:39:50;;;;;;;48.35;29.85;;;;;;;4.82;47.43;100417.94;1806249;77;21918;-60
2021/04/12 03:42:44;;;;;;;45.28;28.12;;;;;;;4.92;48.13;100421.34;1827068;76;23207;-63
2021/04/12 03:45:21;;;;;;;43.92;28.35;;;;;;;4.90;48.14;100413.08;1792820;77;21619;-63
2021/04/12 03:48:26;;;;;;;42.95;28.35;;;;;;;4.93;48.28;100415.23;1776713;79;22022;-64
2021/04/12 03:51:50;;;;;;;43.87;26.75;;;;;;;4.90;48.45;100406.16;1784410;77;21613;-62
2021/04/12 03:54:33;;;;;;;43.20;27.58;;;;;;;4.97;48.33;100418.69;1778739;79;21122;-61
2021/04/12 03:57:15;;;;;;;42.67;27.62;;;;;;;4.98;48.05;100409.55;1786144;77;21674;-63
2021/04/12 04:00:06;;;;;;;42.35;27.85;;;;;;;5.02;48.17;100409.95;1783802;79;21457;-63
2021/04/12 04:03:01;;;;;;;44.85;28.27;;;;;;;5.05;48.54;100408.64;1779692;77;21643;-63
2021/04/12 04:05:54;;;;;;;46.33;28.75;;;;;;;5.12;48.24;100408.13;1786771;78;21555;-63
2021/04/12 04:08:45;;;;;;;49.45;29.65;;;;;;;5.16;47.57;100402.05;1773632;77;21200;-64
2021/04/12 04:11:43;;;;;;;51.58;28.32;;;;;;;5.23;46.99;100404.14;1780583;79;21662;-62
2021/04/12 04:14:38;;;;;;;45.15;28.07;;;;;;;5.31;46.62;100407.53;1778379;79;21601;-62
2021/04/12 04:17:42;;;;;;;53.50;30.52;;;;;;;5.36;46.45;100408.36;1715149;81;22071;-63
2021/04/12 04:20:34;;;;;;;50.08;30.57;;;;;;;5.39;46.46;100405.73;1781182;76;21639;-63
2021/04/12 04:23:31;;;;;;;50.50;30.50;;;;;;;5.44;46.72;100409.17;1774684;79;21615;-62
2021/04/12 04:26:36;;;;;;;;;;;;;;;5.47;46.92;100409.58;1785067;77;21561;-64
2021/04/12 04:29:35;;;;;;;51.95;28.35;;;;;;;5.50;46.69;100403.45;1792571;77;20606;-62
2021/04/12 04:32:46;;;;;;;52.50;30.48;;;;;;;5.51;47.00;100406.50;1737007;81;21650;-64
2021/04/12 04:35:34;;;;;;;50.52;31.35;;;;;;;5.56;46.70;100401.66;1747561;80;21187;-64
2021/04/12 04:38:31;;;;;;;55.63;30.85;;;;;;;5.63;46.20;100402.03;1765349;80;21793;-63
2021/04/12 04:41:35;;;;;;;55.80;31.68;;;;;;;5.73;46.43;100404.09;1766866;80;21523;-63
2021/04/12 04:44:52;;;;;;;54.53;31.87;;;;;;;5.72;46.99;100397.13;1767675;79;21694;-62
2021/04/12 04:47:42;;;;;;;;;;;;;;;5.85;46.25;100409.61;1767787;80;22110;-63
2021/04/12 04:50:27;;;;;;;55.12;30.88;;;;;;;5.92;46.45;100411.73;1740050;80;20322;-65
2021/04/12 04:53:34;;;;;;;62.05;31.77;;;;;;;5.99;46.36;100409.05;1739729;80;21579;-65
2021/04/12 04:56:27;;;;;;;55.50;32.90;;;;;;;6.09;46.31;100406.34;1740467;80;21135;-65
2021/04/12 04:59:21;;;;;;;60.50;33.25;;;;;;;6.12;46.34;100403.25;1738433;80;21181;-66
2021/04/12 05:02:14;;;;;;;62.48;34.55;;;;;;;6.13;46.32;100400.19;1737524;80;21985;-65
2021/04/12 05:05:15;;;;;;;64.58;34.75;;;;;;;6.15;46.47;100392.75;1760159;80;21663;-68
2021/04/12 05:08:13;;;;;;;63.38;34.98;;;;;;;6.23;46.64;100396.14;1691381;80;21623;-65
2021/04/12 05:11:31;;;;;;;64.20;34.92;;;;;;;6.34;46.60;100390.75;1741035;81;21663;-66
2021/04/12 05:14:23;;;;;;;64.58;33.78;;;;;;;6.47;46.51;100389.30;1741273;81;21679;-65
2021/04/12 05:17:03;;;;;;;57.88;33.63;;;;;;;6.61;46.42;100379.48;1734190;80;21496;-66
2021/04/12 05:19:55;;;;;;;56.73;34.00;;;;;;;6.74;46.42;100380.17;1691810;81;21300;-65
2021/04/12 05:22:57;;;;;;;55.38;34.35;;;;;;;6.88;46.50;100377.36;1715327;81;21595;-63
2021/04/12 05:26:11;;;;;;;58.95;34.43;;;;;;;6.99;46.32;100378.91;1744127;80;22123;-67
2021/04/12 05:29:10;;;;;;;58.33;33.33;;;;;;;7.11;46.40;100373.91;1739826;81;22084;-64
2021/04/12 05:32:08;;;;;;;57.33;33.63;;;;;;;7.20;46.45;100367.67;1741354;81;21757;-64
2021/04/12 05:35:15;;;;;;;53.83;33.35;;;;;;;7.32;46.40;100368.75;1741372;80;21790;-60
2021/04/12 05:38:09;;;;;;;53.35;33.25;;;;;;;7.44;46.30;100362.45;1743347;80;21610;-60
2021/04/12 05:40:53;;;;;;;53.35;34.00;;;;;;;7.58;46.13;100359.11;1736986;80;21179;-59
2021/04/12 05:44:07;;;;;;;54.93;33.53;;;;;;;7.68;46.31;100350.62;1743968;81;22350;-61
2021/04/12 05:47:03;;;;;;;51.75;32.00;;;;;;;7.80;46.59;100348.23;1709151;80;22052;-59
2021/04/12 05:49:55;;;;;;;52.15;32.90;;;;;;;7.93;46.20;100351.44;1742782;80;21570;-60
2021/04/12 05:53:03;;;;;;;47.17;30.45;;;;;;;8.05;46.19;100358.20;1741068;80;21691;-61
2021/04/12 05:56:06;;;;;;;51.75;32.50;;;;;;;8.17;46.03;100354.88;1743770;81;21573;-60
2021/04/12 05:59:19;;;;;;;53.02;30.97;;;;;;;8.33;45.86;100351.47;1744183;80;21688;-61
2021/04/12 06:02:25;;;;;;;50.95;29.65;;;;;;;8.48;45.89;100359.47;1740173;80;22171;-60
2021/04/12 06:05:29;;;;;;;49.53;30.85;;;;;;;8.62;45.62;100354.35;1741705;80;21126;-60
2021/04/12 06:08:38;;;;;;;53.50;31.57;;;;;;;8.75;45.46;100352.70;1745599;80;21150;-63
2021/04/12 06:11:56;;;;;;;51.13;31.93;;;;;;;8.86;45.10;100355.08;1735042;80;21706;-60
2021/04/12 06:14:37;;;;;;;52.45;34.38;;;;;;;8.95;45.04;100348.30;1720076;80;21962;-63
2021/04/12 06:17:51;;;;;;;53.90;34.85;;;;;;;9.05;44.98;100347.61;1746406;80;22253;-60
2021/04/12 06:20:31;;;;;;;58.75;33.80;;;;;;;9.16;45.18;100340.78;1746934;80;21683;-61
2021/04/12 06:23:36;;;;;;;52.95;32.30;;;;;;;9.29;44.73;100334.31;1746276;80;21587;-59
2021/04/12 06:26:38;;;;;;;48.42;32.15;;;;;;;9.44;44.32;100339.60;1737714;80;21580;-63
2021/04/12 06:29:58;;;;;;;48.95;30.90;;;;;;;9.66;43.87;100331.13;1746532;80;21642;-59
2021/04/12 06:33:06;;;;;;;53.28;30.27;;;;;;;9.87;43.43;100340.15;1723618;81;21975;-60
2021/04/12 06:36:11;;;;;;;44.98;29.40;;;;;;;10.07;42.82;100331.23;1723709;81;21585;-59
2021/04/12 06:39:10;;;;;;;45.10;28.62;;;;;;;10.24;42.70;100335.13;1723548;81;21623;-62
2021/04/12 06:42:16;;;;;;;43.70;26.75;;;;;;;10.40;42.27;100332.95;1721240;81;21679;-60
2021/04/12 06:45:23;;;;;;;44.18;27.05;;;;;;;10.54;41.79;100325.93;1723306;81;21102;-60
2021/04/12 06:48:27;;;;;;;43.85;27.32;;;;;;;10.70;41.81;100323.22;1719455;82;21773;-60
2021/04/12 06:51:34;;;;;;;35.15;22.60;;;;;;;10.83;41.32;100319.70;1723018;81;21570;-60
2021/04/12 06:54:44;;;;;;;37.42;22.00;;;;;;;10.99;41.05;100317.44;1723498;81;21625;-59
2021/04/12 06:58:03;;;;;;;35.50;22.25;;;;;;;11.13;40.53;100302.48;1724862;81;21620;-61
2021/04/12 07:01:26;;;;;;;32.83;20.02;;;;;;;11.25;40.03;100306.88;1721281;81;21626;-63
2021/04/12 07:04:36;;;;;;;30.15;19.52;;;;;;;11.41;40.25;100305.86;1725065;81;22069;-61
2021/04/12 07:07:36;;;;;;;29.45;19.35;;;;;;;11.58;39.61;100301.77;1723946;81;21175;-63
2021/04/12 07:10:19;;;;;;;30.00;20.27;;;;;;;11.70;39.32;100301.33;1724641;81;21587;-61
2021/04/12 07:13:17;;;;;;;33.98;20.85;;;;;;;11.79;39.06;100294.41;1717346;81;21646;-60
2021/04/12 07:16:11;;;;;;;32.45;19.85;;;;;;;11.89;38.90;100292.28;1722150;81;21554;-61
2021/04/12 07:19:05;;;;;;;44.90;21.93;;;;;;;12.03;38.87;100285.19;1723306;81;22188;-63
2021/04/12 07:22:12;;;;;;;36.08;20.77;;;;;;;12.17;38.88;100283.35;1687152;81;21608;-59
2021/04/12 07:25:31;;;;;;;34.73;19.57;;;;;;;12.32;38.35;100280.54;1722090;81;21680;-65
2021/04/12 07:28:29;;;;;;;30.82;18.07;;;;;;;12.45;38.31;100285.72;1718395;82;21583;-60
2021/04/12 07:31:27;;;;;;;35.98;17.20;;;;;;;12.60;37.63;100281.60;1718870;81;21612;-61
2021/04/12 07:34:19;;;;;;;27.90;16.75;;;;;;;12.78;37.92;100283.95;1725635;81;22023;-63
2021/04/12 07:37:38;;;;;;;26.90;17.17;;;;;;;12.91;36.44;100271.11;1722456;81;21662;-62
2021/04/12 07:40:51;;;;;;;29.52;16.97;;;;;;;13.02;36.66;100271.04;1730101;81;22201;-67
2021/04/12 07:44:15;;;;;;;28.75;17.48;;;;;;;13.17;36.97;100261.59;1725710;81;21131;-62
2021/04/12 07:47:28;;;;;;;23.87;16.57;;;;;;;13.34;35.05;100267.97;1727339;81;21644;-61
2021/04/12 07:50:38;;;;;;;29.25;16.55;;;;;;;13.44;35.13;100262.66;1727331;81;21987;-63
2021/04/12 07:53:45;;;;;;;20.00;15.08;;;;;;;13.61;35.28;100269.81;1696105;82;21587;-62
2021/04/12 07:57:08;;;;;;;22.35;14.78;;;;;;;13.71;34.54;100259.68;1708031;82;21600;-62
2021/04/12 08:00:21;;;;;;;19.23;14.47;;;;;;;13.76;33.56;100248.44;1702788;82;21672;-67
2021/04/12 08:03:10;;;;;;;19.70;14.63;;;;;;;13.74;33.63;100245.02;1721004;81;21608;-64
2021/04/12 08:06:26;;;;;;;21.50;15.43;;;;;;;13.74;33.39;100248.98;1695287;82;22041;-63
2021/04/12 08:09:15;;;;;;;26.85;14.68;;;;;;;13.76;32.67;100241.83;1722975;81;21157;-66
2021/04/12 08:12:21;;;;;;;19.87;15.25;;;;;;;13.43;32.92;100187.84;1724256;81;21655;-63
2021/04/12 08:15:25;;;;;;;23.27;15.80;;;;;;;13.72;33.45;100244.23;1724044;81;21569;-65
2021/04/12 08:18:26;;;;;;;25.43;15.43;;;;;;;13.70;34.00;100239.48;1727831;81;21711;-60
2021/04/12 08:21:23;;;;;;;23.12;14.83;;;;;;;13.66;34.14;100234.80;1734862;81;22052;-64
2021/04/12 08:24:18;;;;;;;24.55;16.70;;;;;;;13.66;34.13;100238.77;1729144;81;21706;-68
2021/04/12 08:27:00;;;;;;;25.12;15.45;;;;;;;13.65;34.18;100239.68;1685805;82;21645;-66
2021/04/12 08:30:24;;;;;;;19.57;14.13;;;;;;;13.69;34.10;100236.44;1730992;81;21686;-66
2021/04/12 08:33:23;;;;;;;19.30;13.10;;;;;;;13.74;33.80;100236.61;1722318;80;21563;-61
2021/04/12 08:36:46;;;;;;;20.55;13.32;;;;;;;13.78;33.36;100234.22;1747774;80;22065;-61
2021/04/12 08:40:05;;;;;;;22.25;13.15;;;;;;;13.76;32.78;100229.47;1745359;80;21223;-62
2021/04/12 08:43:03;;;;;;;20.25;12.98;;;;;;;13.74;33.39;100226.52;1744169;80;21672;-62
2021/04/12 08:46:14;;;;;;;18.20;12.00;;;;;;;13.78;33.62;100212.22;1758914;80;21568;-63
2021/04/12 08:49:30;;;;;;;20.72;12.82;;;;;;;13.78;33.05;100209.58;1762213;79;21540;-61
2021/04/12 08:52:40;;;;;;;16.37;10.77;;;;;;;13.81;33.40;100202.84;1767196;79;22178;-63
2021/04/12 08:55:49;;;;;;;19.62;11.85;;;;;;;13.87;33.53;100193.77;1763420;79;21698;-62
2021/04/12 08:58:45;;;;;;;19.32;11.95;;;;;;;13.99;33.14;100190.52;1765719;79;21584;-60
2021/04/12 09:02:07;;;;;;;18.00;10.60;;;;;;;14.09;33.33;100197.09;1767708;79;21600;-60
2021/04/12 09:05:09;;;;;;;17.35;10.88;;;;;;;14.20;33.25;100195.22;1769929;79;22348;-62
2021/04/12 09:08:31;;;;;;;15.32;10.08;;;;;;;14.24;32.95;100195.48;1757947;79;21575;-63
2021/04/12 09:11:27;;;;;;;18.70;10.53;;;;;;;14.18;32.94;100192.67;1770321;79;21653;-61
2021/04/12 09:14:34;;;;;;;14.10;10.05;;;;;;;14.10;32.97;100182.07;1765570;79;21614;-62
2021/04/12 09:17:27;;;;;;;18.95;10.18;;;;;;;14.02;33.03;100175.84;1747739;80;21632;-61
2021/04/12 09:20:07;;;;;;;12.68;8.85;;;;;;;13.93;32.66;100178.92;1734659;80;21666;-63
2021/04/12 09:23:06;;;;;;;15.88;9.58;;;;;;;13.82;33.35;100169.73;1768351;79;22085;-62
2021/04/12 09:26:21;;;;;;;16.67;7.92;;;;;;;13.76;33.34;100166.05;1765153;80;21611;-63
2021/04/12 09:29:38;;;;;;;8.28;6.35;;;;;;;13.76;33.20;100163.88;1746193;80;21601;-62
2021/04/12 09:32:42;;;;;;;9.50;6.78;;;;;;;13.69;32.48;100150.08;1744820;80;21157;-63
2021/04/12 09:35:43;;;;;;;10.68;6.80;;;;;;;13.64;32.53;100154.75;1755577;80;21536;-62
2021/04/12 09:38:44;;;;;;;12.03;7.35;;;;;;;13.56;32.33;100149.83;1745438;80;22058;-63
2021/04/12 09:41:45;;;;;;;12.40;7.25;;;;;;;13.55;32.27;100144.61;1724729;82;21667;-65
2021/04/12 09:44:19;;;;;;;11.05;7.33;;;;;;;13.55;32.65;100150.75;1765749;79;21643;-62
2021/04/12 09:47:22;;;;;;;12.15;8.05;;;;;;;13.59;32.72;100144.38;1748935;80;21170;-62
2021/04/12 09:50:23;;;;;;;11.35;7.75;;;;;;;13.62;32.57;100139.44;1746246;80;21620;-62
2021/04/12 09:53:31;;;;;;;16.07;8.58;;;;;;;13.66;32.74;100129.11;1744712;80;21927;-62
2021/04/12 09:56:49;;;;;;;13.83;8.33;;;;;;;13.72;32.79;100128.81;1751117;80;21238;-64
2021/04/12 09:59:48;;;;;;;13.08;7.83;;;;;;;13.77;32.64;100131.25;1751130;80;21579;-63
2021/04/12 10:02:47;;;;;;;10.72;7.72;;;;;;;13.76;32.76;100118.47;1691097;81;21196;-63
2021/04/12 10:05:56;;;;;;;9.78;7.53;;;;;;;13.74;32.88;100114.20;1719994;80;21667;-63
2021/04/12 10:08:36;;;;;;;9.25;7.65;;;;;;;13.71;32.98;100118.30;1750332;80;22044;-62
2021/04/12 10:11:18;;;;;;;9.60;7.47;;;;;;;13.71;33.03;100113.02;1747376;80;21140;-63
2021/04/12 10:14:14;;;;;;;12.73;7.90;;;;;;;13.70;33.25;100112.17;1748801;80;21572;-61
2021/04/12 10:16:48;;;;;;;13.70;7.95;;;;;;;13.71;33.38;100120.51;1746407;80;21581;-62
2021/04/12 10:19:19;;;;;;;12.68;7.42;;;;;;;13.71;33.36;100116.98;1739679;80;21583;-62
2021/04/12 10:22:07;;;;;;;13.25;8.45;;;;;;;13.70;33.63;100117.45;1747949;80;22077;-62
2021/04/12 10:25:07;;;;;;;16.52;8.08;;;;;;;13.68;33.63;100116.67;1767119;79;21541;-63
2021/04/12 10:27:50;;;;;;;12.58;8.48;;;;;;;13.73;33.88;100118.64;1813406;76;23372;-67
2021/04/12 10:30:28;;;;;;;13.00;7.53;;;;;;;13.70;33.75;100113.97;1753126;79;21241;-61
2021/04/12 10:33:01;;;;;;;11.25;6.90;;;;;;;13.69;33.43;100113.56;1782344;78;21592;-61
2021/04/12 10:35:52;;;;;;;15.48;6.97;;;;;;;13.68;33.49;100118.00;1789119;77;21632;-62
2021/04/12 10:38:31;;;;;;;11.40;6.83;;;;;;;13.67;33.20;100107.02;1767354;79;21536;-63
2021/04/12 10:41:05;;;;;;;11.43;7.65;;;;;;;13.66;33.29;100105.33;1783251;77;21561;-61
2021/04/12 10:43:44;;;;;;;12.88;7.25;;;;;;;13.67;33.42;100104.86;1784054;77;21601;-65
2021/04/12 10:46:29;;;;;;;14.28;7.25;;;;;;;13.72;34.26;100106.82;1716412;80;22031;-63
2021/04/12 10:49:10;;;;;;;14.38;7.42;;;;;;;13.74;34.83;100108.92;1724110;80;21578;-63
2021/04/12 10:51:56;;;;;;;18.73;8.18;;;;;;;13.74;35.10;100112.41;1724762;79;21623;-64
2021/04/12 10:55:13;;;;;;;13.83;7.10;;;;;;;13.77;35.36;100110.10;1727362;80;21567;-61
2021/04/12 10:58:09;;;;;;;11.80;6.33;;;;;;;13.78;36.15;100115.77;1729137;79;21229;-62
2021/04/12 11:00:59;;;;;;;8.88;5.58;;;;;;;13.83;36.88;100111.97;1783695;77;21619;-63
2021/04/12 11:04:01;;;;;;;8.05;5.42;;;;;;;13.85;39.33;100118.50;1790183;77;21568;-64
2021/04/12 11:07:05;;;;;;;11.50;5.80;;;;;;;13.81;38.83;100117.80;1779198;79;21611;-63
2021/04/12 11:09:51;;;;;;;11.53;7.05;;;;;;;13.82;39.33;100115.55;1785013;77;21540;-60
2021/04/12 11:12:50;;;;;;;10.13;7.35;;;;;;;13.91;39.27;100111.59;1776093;77;21690;-64
2021/04/12 11:15:23;;;;;;;17.67;7.30;;;;;;;14.02;39.51;100110.59;1779742;79;22063;-61
2021/04/12 11:18:19;;;;;;;11.93;7.62;;;;;;;14.12;39.99;100112.30;1785643;79;21560;-61
2021/04/12 11:21:26;;;;;;;16.13;8.20;;;;;;;14.20;40.67;100108.83;1783487;77;21603;-61
2021/04/12 11:24:29;;;;;;;16.15;9.05;;;;;;;14.28;41.53;100110.20;1789399;77;21908;-59
2021/04/12 11:27:45;;;;;;;16.95;8.53;;;;;;;14.28;42.15;100111.52;1780688;77;21616;-61
2021/04/12 11:30:45;;;;;;;10.48;8.38;;;;;;;14.19;42.58;100105.78;1780319;79;22130;-59
2021/04/12 11:33:48;;;;;;;10.78;8.33;;;;;;;14.06;42.78;100110.45;1776659;79;21666;-63
2021/04/12 11:36:46;;;;;;;13.00;8.48;;;;;;;13.96;42.84;100114.87;1777203;79;21595;-59
2021/04/12 11:39:34;;;;;;;11.97;8.78;;;;;;;13.81;42.87;100110.34;1736373;79;21615;-59
2021/04/12 11:42:07;;;;;;;12.68;8.93;;;;;;;13.67;43.11;100110.14;1774102;79;21560;-60
2021/04/12 11:44:51;;;;;;;11.73;9.23;;;;;;;13.48;44.11;100111.02;1778684;79;21836;-60
2021/04/12 11:47:29;;;;;;;16.25;10.32;;;;;;;13.34;44.88;100118.75;1774984;78;21644;-61
2021/04/12 11:50:15;;;;;;;17.45;12.23;;;;;;;13.23;46.15;100110.81;1747976;80;21654;-65
2021/04/12 11:53:29;;;;;;;14.58;11.90;;;;;;;13.17;47.41;100107.14;1781326;78;21469;-62
2021/04/12 11:56:11;;;;;;;18.87;12.65;;;;;;;13.11;48.41;100116.67;1755024;79;21571;-61
2021/04/12 11:58:50;;;;;;;18.45;12.85;;;;;;;12.96;49.87;100116.02;1779785;78;21824;-60
2021/04/12 12:01:43;;;;;;;19.10;13.55;;;;;;;12.76;50.79;100116.94;1735363;80;21132;-62
2021/04/12 12:04:37;;;;;;;18.48;13.58;;;;;;;12.57;51.87;100115.56;1730647;80;21662;-61
2021/04/12 12:07:13;;;;;;;17.48;12.88;;;;;;;12.39;53.00;100116.73;1781576;77;21736;-63
2021/04/12 12:09:50;;;;;;;;;;;;;;;12.26;53.63;100111.59;1789407;77;21638;-64
2021/04/12 12:15:40;;;;;;;19.77;12.35;;;;;;;12.09;54.02;100105.70;1877783;74;22618;-63
2021/04/12 12:18:26;;;;;;;16.95;13.15;;;;;;;11.95;54.84;100106.28;1832178;75;21741;-61
2021/04/12 12:21:29;;;;;;;15.95;12.47;;;;;;;11.83;55.00;100100.19;1835852;75;22024;-62
2021/04/12 12:24:23;;;;;;;16.30;12.65;;;;;;;11.77;55.05;100101.30;1835858;76;21641;-62
2021/04/12 12:27:15;;;;;;;17.87;13.25;;;;;;;11.71;55.25;100090.13;1834903;75;21137;-62
2021/04/12 12:30:12;;;;;;;17.05;12.20;;;;;;;11.62;55.71;100086.96;1736169;78;21536;-61
2021/04/12 12:33:28;;;;;;;17.37;13.30;;;;;;;11.52;55.84;100084.75;1724694;80;21698;-61
2021/04/12 12:36:10;;;;;;;20.97;13.78;;;;;;;11.45;57.17;100092.02;1771345;78;22245;-61
2021/04/12 12:39:01;;;;;;;19.32;14.53;;;;;;;11.32;57.68;100094.73;1795829;78;21204;-60
2021/04/12 12:41:33;;;;;;;17.60;14.43;;;;;;;11.32;58.22;100098.67;1802493;77;21516;-60
2021/04/12 12:44:05;;;;;;;20.15;14.93;;;;;;;11.28;58.40;100098.81;1814068;77;21672;-60
2021/04/12 12:46:36;;;;;;;26.35;18.25;;;;;;;11.28;58.64;100094.87;1773373;78;21615;-62
2021/04/12 12:49:13;;;;;;;43.98;25.55;;;;;;;11.28;58.86;100093.98;1762741;78;21801;-61
2021/04/12 12:52:00;;;;;;;29.82;20.10;;;;;;;11.22;58.96;100094.23;1772400;79;21588;-61
2021/04/12 12:54:44;;;;;;;25.17;16.62;;;;;;;11.18;59.53;100093.48;1754167;78;21169;-61
2021/04/12 12:57:34;;;;;;;19.90;15.78;;;;;;;11.14;59.39;100093.67;1756286;78;21657;-61
2021/04/12 13:00:39;;;;;;;19.90;15.15;;;;;;;11.07;59.91;100093.03;1773765;78;21614;-62
2021/04/12 13:03:32;;;;;;;20.50;15.20;;;;;;;11.06;60.19;100097.45;1779278;78;22099;-61
2021/04/12 13:06:15;;;;;;;20.43;14.83;;;;;;;11.08;60.01;100095.62;1770248;78;22595;-60
2021/04/12 13:08:57;;;;;;;23.75;15.10;;;;;;;11.08;60.29;100087.72;1774386;78;21599;-60
2021/04/12 13:11:41;;;;;;;22.13;14.87;;;;;;;11.12;60.93;100096.36;1779749;77;21632;-60
2021/04/12 13:14:43;;;;;;;23.55;15.18;;;;;;;11.14;60.54;100093.20;1765521;79;21137;-61
2021/04/12 13:17:32;;;;;;;21.07;14.50;;;;;;;11.18;60.50;100088.69;1790016;78;22072;-62
2021/04/12 13:20:22;;;;;;;20.95;14.43;;;;;;;11.18;60.41;100086.05;1780144;78;21623;-61
2021/04/12 13:22:54;;;;;;;21.90;14.25;;;;;;;11.18;60.41;100083.42;1784196;78;21611;-62
2021/04/12 13:25:53;;;;;;;24.15;14.45;;;;;;;11.23;60.12;100092.86;1774039;78;21849;-60
2021/04/12 13:28:27;;;;;;;25.37;13.98;;;;;;;11.18;60.08;100088.69;1604200;85;21643;-60
2021/04/12 13:31:06;;;;;;;22.75;14.10;;;;;;;11.09;59.88;100088.56;1620520;85;22100;-60
2021/04/12 13:33:38;;;;;;;24.30;14.70;;;;;;;11.07;60.01;100081.20;1643606;84;21288;-61
2021/04/12 13:36:13;;;;;;;25.35;14.30;;;;;;;11.09;59.81;100087.25;1617214;86;21604;-60
2021/04/12 13:38:42;;;;;;;20.88;14.00;;;;;;;11.07;59.95;100089.94;1617450;86;21762;-61
2021/04/12 13:41:20;;;;;;;27.00;14.73;;;;;;;11.10;60.02;100088.52;1597431;86;21698;-62